LFSB/MLH METAR and TAF weather

Enter ICAO airport designator
Station Type Date Time Source
LFSB METAR 2022/05/26 05:30 UTC NOAA

LFSB 260530Z VRB03KT CAVOK 15/10 Q1024 NOSIG


Station Type Date Time Source
LFSB Decoded METAR 2022/05/26 05:30 UTC NOAA

Bale-Mulhouse, France (LFSB) 47-36N 007-31E 271M
May 26, 2022 - 01:30 AM EDT / 2022.05.26 0530 UTC
Wind: Variable at 3 MPH (3 KT):0
Visibility: greater than 7 mile(s):0
Temperature: 59 F (15 C)
Dew Point: 50 F (10 C)
Relative Humidity: 72%
Pressure (altimeter): 30.24 in. Hg (1024 hPa)
ob: LFSB 260530Z VRB03KT CAVOK 15/10 Q1024 NOSIG
cycle: 5

Station Type Date Time Source
LFSB TAF 2022/05/26 06:23 UTC NOAA

TAF LFSB 260500Z 2606/2706 VRB03KT CAVOK
BECMG 2609/2612 28010KT
BECMG 2621/2624 21003KT

Example: see airport list